Time;durP1;ratioP1;P1;durP2;ratioP2;P2;SDS_P1;SDS_P2;PMS_P1;PMS_P2;Temp;Humidity;BMP_temperature;BMP_pressure;BME280_temperature;BME280_humidity;BME280_pressure;Samples;Min_cycle;Max_cycle;Signal;HPM_P1;HPM_P2
2021/12/21 00:00:42;;;;;;;3.42;2.08;;;;;;;-2.20;99.88;102584.19;5086105;28;20044;-72
2021/12/21 00:03:09;;;;;;;4.88;2.85;;;;;;;-2.21;99.63;102580.72;5078569;28;20044;-72
2021/12/21 00:05:37;;;;;;;8.00;2.95;;;;;;;-2.29;99.44;102595.31;5073975;28;20513;-73
2021/12/21 00:08:07;;;;;;;5.90;3.20;;;;;;;-2.29;99.43;102584.16;5077546;28;20044;-72
2021/12/21 00:10:35;;;;;;;34.67;4.07;;;;;;;-2.31;99.07;102583.28;5084225;28;20077;-71
2021/12/21 00:13:04;;;;;;;3.40;2.08;;;;;;;-2.43;98.73;102583.28;5086849;28;20240;-73
2021/12/21 00:15:44;;;;;;;7.75;3.45;;;;;;;-2.44;97.69;102579.00;5081631;28;20048;-72
2021/12/21 00:18:29;;;;;;;3.97;2.78;;;;;;;-2.46;97.38;102587.56;5089850;28;20047;-72
2021/12/21 00:21:04;;;;;;;4.72;3.00;;;;;;;-2.42;98.24;102579.81;5077017;28;20139;-71
2021/12/21 00:23:33;;;;;;;3.70;2.63;;;;;;;-2.32;97.96;102573.84;5081978;28;20047;-71
2021/12/21 00:26:03;;;;;;;6.15;4.13;;;;;;;-2.24;97.97;102575.59;5081758;28;20044;-71
2021/12/21 00:28:35;;;;;;;3.38;2.42;;;;;;;-2.28;97.36;102570.44;5095139;27;20051;-72
2021/12/21 00:31:01;;;;;;;4.57;3.45;;;;;;;-2.38;96.99;102571.28;5083079;28;20099;-74
2021/12/21 00:36:16;;;;;;;14.68;4.68;;;;;;;-2.54;96.44;102584.97;5038343;27;1994177;-73
2021/12/21 00:38:43;;;;;;;8.25;3.60;;;;;;;-2.59;96.19;102571.22;5087475;28;20050;-75
2021/12/21 00:41:09;;;;;;;3.75;2.63;;;;;;;-2.60;96.64;102573.78;5085813;28;20040;-73
2021/12/21 00:43:36;;;;;;;7.60;3.83;;;;;;;-2.68;96.73;102586.63;5072567;28;20046;-74
2021/12/21 00:46:03;;;;;;;4.90;3.45;;;;;;;-2.69;96.53;102568.59;5082842;28;20051;-73
2021/12/21 00:48:32;;;;;;;11.80;4.13;;;;;;;-2.66;96.51;102568.63;5086285;28;20050;-74
2021/12/21 00:51:01;;;;;;;19.92;3.83;;;;;;;-2.56;97.88;102571.22;5083602;28;20039;-71
2021/12/21 00:53:29;;;;;;;4.07;2.33;;;;;;;-2.41;98.30;102573.81;5086506;28;20131;-72
2021/12/21 00:55:56;;;;;;;6.60;2.33;;;;;;;-2.45;97.71;102566.97;5083736;28;20047;-71
2021/12/21 00:58:23;;;;;;;4.78;3.00;;;;;;;-2.56;97.82;102562.66;5088460;28;20052;-72
2021/12/21 01:00:50;;;;;;;6.43;2.97;;;;;;;-2.60;97.09;102564.38;5092310;28;20109;-74
2021/12/21 01:03:18;;;;;;;5.50;3.13;;;;;;;-2.63;96.79;102561.78;5074294;28;20046;-71
2021/12/21 01:05:50;;;;;;;3.83;2.63;;;;;;;-2.69;96.74;102561.75;5085974;28;20038;-73
2021/12/21 01:08:21;;;;;;;4.35;1.85;;;;;;;-2.69;96.38;102554.06;5084319;28;20113;-74
2021/12/21 01:11:12;;;;;;;4.03;2.45;;;;;;;-2.69;96.27;102564.34;5072425;28;20032;-72
2021/12/21 01:13:49;;;;;;;11.32;2.15;;;;;;;-2.75;96.72;102564.28;5093235;28;20050;-70
2021/12/21 01:16:23;;;;;;;8.02;3.13;;;;;;;-2.76;97.37;102570.31;5097506;28;20040;-72
2021/12/21 01:19:05;;;;;;;8.07;1.98;;;;;;;-2.79;96.35;102577.16;5087179;28;20035;-72
2021/12/21 01:21:38;;;;;;;3.55;3.08;;;;;;;-2.78;97.00;102563.44;5082072;28;20043;-72
2021/12/21 01:24:19;;;;;;;3.92;3.17;;;;;;;-2.75;97.00;102566.88;5086579;28;20163;-72
2021/12/21 01:27:02;;;;;;;2.08;1.88;;;;;;;-2.70;97.11;102560.03;5088407;28;20047;-71
2021/12/21 01:29:35;;;;;;;4.32;2.22;;;;;;;-2.70;96.43;102565.19;5068882;28;20068;-72
2021/12/21 01:32:08;;;;;;;14.25;1.98;;;;;;;-2.74;97.29;102565.16;5095289;28;20036;-71
2021/12/21 01:34:44;;;;;;;1.98;1.77;;;;;;;-2.78;97.25;102556.59;5099202;28;20046;-71
2021/12/21 01:37:19;;;;;;;7.95;3.30;;;;;;;-2.81;97.02;102556.56;5105876;28;20062;-71
2021/12/21 01:39:59;;;;;;;4.15;2.33;;;;;;;-2.86;96.11;102555.69;5080113;28;20127;-73
2021/12/21 01:42:42;;;;;;;9.40;2.15;;;;;;;-2.90;96.33;102553.94;5085125;28;20037;-71
2021/12/21 01:50:38;;;;;;;1.70;1.50;;;;;;;-2.88;97.00;102552.25;5053144;28;20036;-73
2021/12/21 01:53:05;;;;;;;2.53;2.33;;;;;;;-2.89;96.86;102549.69;5075519;28;20044;-73
2021/12/21 01:55:32;;;;;;;2.47;2.22;;;;;;;-2.88;96.47;102543.69;5071765;28;20051;-73
2021/12/21 01:57:59;;;;;;;3.13;1.90;;;;;;;-2.93;96.38;102546.25;5071553;28;20118;-72
2021/12/21 02:00:29;;;;;;;1.73;1.52;;;;;;;-2.71;96.68;102547.19;5076024;28;20044;-71
2021/12/21 02:02:56;;;;;;;3.75;3.17;;;;;;;-2.78;96.87;102554.00;5058484;28;20056;-71
2021/12/21 02:05:23;;;;;;;4.22;2.83;;;;;;;-2.83;97.20;102553.13;5056268;28;20135;-73
2021/12/21 02:07:50;;;;;;;6.40;2.88;;;;;;;-2.90;96.56;102545.41;5069152;28;20123;-74
2021/12/21 02:10:17;;;;;;;5.22;3.55;;;;;;;-2.87;97.62;102538.56;5072834;28;20875;-73
2021/12/21 02:12:44;;;;;;;2.97;2.28;;;;;;;-2.82;96.71;102541.13;5051863;28;20089;-72
2021/12/21 02:15:13;;;;;;;3.88;3.17;;;;;;;-2.92;96.86;102532.56;5079975;28;20052;-71
2021/12/21 02:20:42;;;;;;;4.13;3.03;;;;;;;-2.94;96.89;102534.25;5056266;28;20052;-74
2021/12/21 02:23:12;;;;;;;3.97;3.10;;;;;;;-2.94;96.62;102547.09;5074867;28;20472;-71
2021/12/21 02:28:46;;;;;;;8.40;2.83;;;;;;;-3.04;95.89;102536.78;5071375;28;20136;-73
2021/12/21 02:31:13;;;;;;;4.78;3.38;;;;;;;-3.10;96.58;102539.31;5070112;28;20057;-72
2021/12/21 02:33:40;;;;;;;5.13;2.25;;;;;;;-3.07;96.87;102529.03;5071428;28;20109;-72
2021/12/21 02:36:09;;;;;;;2.58;2.22;;;;;;;-3.10;96.42;102529.03;5058843;28;20066;-73
2021/12/21 02:38:35;;;;;;;3.10;2.28;;;;;;;-3.08;96.91;102535.88;5054474;28;20250;-72
2021/12/21 02:41:02;;;;;;;9.10;2.95;;;;;;;-3.11;96.63;102533.31;5076257;28;20048;-73
2021/12/21 02:43:29;;;;;;;3.10;2.35;;;;;;;-3.13;96.37;102524.72;5072924;28;20067;-73
2021/12/21 02:45:56;;;;;;;2.60;1.48;;;;;;;-3.13;96.75;102531.59;5070803;28;20526;-72
2021/12/21 02:48:22;;;;;;;7.82;3.30;;;;;;;-3.15;96.28;102531.56;5071642;28;20060;-72
2021/12/21 02:50:49;;;;;;;5.30;3.10;;;;;;;-3.15;96.54;102529.00;5068157;28;20040;-73
2021/12/21 02:53:17;;;;;;;3.08;2.05;;;;;;;-3.16;96.89;102524.72;5069598;28;20075;-74
2021/12/21 02:55:44;;;;;;;2.30;2.00;;;;;;;-3.16;97.20;102523.88;5075352;28;20043;-72
2021/12/21 02:58:11;;;;;;;5.78;2.83;;;;;;;-3.16;97.18;102522.13;5070004;28;20044;-72
2021/12/21 03:00:38;;;;;;;3.63;2.40;;;;;;;-3.07;97.61;102523.91;5070259;28;20055;-73
2021/12/21 03:03:14;;;;;;;3.22;2.92;;;;;;;-3.04;97.37;102527.34;5078113;28;20048;-73
2021/12/21 03:05:44;;;;;;;5.45;3.03;;;;;;;-3.15;96.71;102533.28;5073000;28;20043;-74
2021/12/21 03:08:16;;;;;;;5.53;1.30;;;;;;;-3.08;96.57;102530.75;5077015;28;20036;-71
2021/12/21 03:10:59;;;;;;;4.47;2.75;;;;;;;-3.08;96.18;102528.16;5074626;28;20144;-72
2021/12/21 03:16:12;;;;;;;4.35;2.50;;;;;;;-3.19;96.43;102531.53;5033651;28;20060;-71
2021/12/21 03:18:39;;;;;;;13.60;4.32;;;;;;;-3.21;96.84;102524.69;5056904;28;20059;-72
2021/12/21 03:21:06;;;;;;;4.00;2.67;;;;;;;-3.18;97.09;102524.72;5068499;28;20502;-73
2021/12/21 03:23:32;;;;;;;3.72;2.70;;;;;;;-3.14;97.01;102517.88;5067326;28;20053;-73
2021/12/21 03:26:01;;;;;;;4.25;2.55;;;;;;;-3.13;97.00;102517.03;5072232;28;20106;-72
2021/12/21 03:28:28;;;;;;;3.72;2.92;;;;;;;-3.15;97.14;102516.16;5075240;28;20044;-71
2021/12/21 03:30:55;;;;;;;4.13;2.38;;;;;;;-3.18;97.07;102527.28;5072236;28;20165;-71
2021/12/21 03:33:23;;;;;;;4.00;3.08;;;;;;;-3.11;97.42;102524.72;5069465;28;20098;-74
2021/12/21 03:35:49;;;;;;;7.57;5.40;;;;;;;-3.01;97.76;102509.38;5072038;28;20104;-72
2021/12/21 03:38:17;;;;;;;1.35;1.25;;;;;;;-3.06;98.14;102516.19;5071435;28;20062;-71
2021/12/21 03:40:44;;;;;;;5.18;2.70;;;;;;;-3.09;97.62;102510.19;5075348;28;20043;-74
2021/12/21 03:43:12;;;;;;;5.07;2.50;;;;;;;-3.15;97.00;102508.44;5073018;28;20044;-74
2021/12/21 03:45:48;;;;;;;3.58;2.65;;;;;;;-3.10;97.89;102509.34;5074212;28;20032;-72
2021/12/21 03:48:15;;;;;;;1.73;1.60;;;;;;;-3.02;97.89;102505.09;5067663;28;20044;-71
2021/12/21 03:50:42;;;;;;;1.13;1.02;;;;;;;-2.98;98.17;102509.38;5073976;28;20118;-74
2021/12/21 03:53:09;;;;;;;4.97;2.85;;;;;;;-3.03;98.17;102502.50;5074444;28;20052;-74
2021/12/21 03:55:36;;;;;;;3.13;2.65;;;;;;;-3.02;97.82;102502.50;5072069;28;20096;-71
2021/12/21 03:58:03;;;;;;;3.47;1.75;;;;;;;-2.96;98.38;102501.69;5067002;28;20054;-71
2021/12/21 04:00:31;;;;;;;3.15;2.85;;;;;;;-2.98;98.18;102504.22;5054480;28;20055;-71
2021/12/21 04:02:58;;;;;;;6.65;2.60;;;;;;;-3.02;97.54;102505.09;5054939;28;20134;-74
2021/12/21 04:05:24;;;;;;;6.07;4.63;;;;;;;-3.10;98.07;102500.75;5071276;28;20134;-72
2021/12/21 04:07:57;;;;;;;7.78;2.90;;;;;;;-3.08;98.09;102501.63;5083527;28;20039;-71
2021/12/21 04:10:23;;;;;;;6.25;2.00;;;;;;;-3.08;98.15;102496.47;5084797;28;20048;-71
2021/12/21 04:12:50;;;;;;;3.33;2.55;;;;;;;-2.96;98.18;102501.69;5095354;28;20020;-73
2021/12/21 04:15:22;;;;;;;23.67;3.33;;;;;;;-2.94;98.40;102493.13;5081255;28;20865;-73
2021/12/21 04:17:50;;;;;;;7.43;2.70;;;;;;;-3.01;98.50;102493.97;5070861;28;20074;-72
2021/12/21 04:20:17;;;;;;;5.60;2.53;;;;;;;-3.12;98.57;102495.63;5071991;28;20054;-74
2021/12/21 04:22:44;;;;;;;3.95;2.30;;;;;;;-3.13;98.50;102496.47;5074339;28;20042;-73
2021/12/21 04:25:12;;;;;;;12.68;3.22;;;;;;;-3.13;98.31;102493.06;5065490;28;20051;-71
2021/12/21 04:27:39;;;;;;;8.27;3.83;;;;;;;-3.19;97.60;102487.03;5071653;28;20131;-72
2021/12/21 04:30:06;;;;;;;4.72;2.78;;;;;;;-3.20;97.91;102496.41;5071236;28;20032;-74
2021/12/21 04:32:32;;;;;;;10.52;2.50;;;;;;;-3.18;98.22;102499.88;5071744;28;20040;-72
2021/12/21 04:35:00;;;;;;;6.20;3.97;;;;;;;-3.25;97.66;102493.00;5050633;28;20052;-72
2021/12/21 04:37:27;;;;;;;7.90;3.05;;;;;;;-3.29;97.77;102495.53;5070427;28;20055;-70
2021/12/21 04:40:00;;;;;;;4.57;3.10;;;;;;;-3.30;98.04;102498.94;5068003;28;20048;-73
2021/12/21 04:42:27;;;;;;;5.72;3.25;;;;;;;-3.29;98.09;102490.41;5068718;28;20040;-71
2021/12/21 04:44:53;;;;;;;3.40;2.92;;;;;;;-3.30;97.69;102488.69;5074022;28;20036;-74
2021/12/21 04:47:20;;;;;;;4.22;2.35;;;;;;;-3.31;97.64;102489.53;5067402;28;20044;-73
2021/12/21 04:49:46;;;;;;;15.88;2.63;;;;;;;-3.36;97.07;102488.66;5068368;28;20048;-72
2021/12/21 04:52:15;;;;;;;3.33;2.45;;;;;;;-3.45;96.74;102491.19;5067924;28;20051;-72
2021/12/21 04:54:43;;;;;;;7.07;2.85;;;;;;;-3.54;96.26;102483.41;5072143;28;20059;-71
2021/12/21 04:57:09;;;;;;;9.05;3.85;;;;;;;-3.56;96.93;102486.00;5072066;28;20036;-73
2021/12/21 04:59:36;;;;;;;4.47;2.55;;;;;;;-3.52;97.44;102479.16;5069429;28;20036;-73
2021/12/21 05:02:03;;;;;;;5.68;2.03;;;;;;;-3.45;97.12;102478.34;5073575;28;20048;-72
2021/12/21 05:04:29;;;;;;;3.20;1.95;;;;;;;-3.44;97.66;102485.19;5070320;28;20048;-72
2021/12/21 05:06:56;;;;;;;4.18;2.28;;;;;;;-3.46;98.14;102487.75;5067659;28;20037;-75
2021/12/21 05:09:27;;;;;;;4.15;3.10;;;;;;;-3.47;98.01;102492.88;5065693;28;20068;-74
2021/12/21 05:12:00;;;;;;;2.88;2.47;;;;;;;-3.45;98.12;102498.88;5066441;28;20044;-72
2021/12/21 05:14:27;;;;;;;6.45;3.58;;;;;;;-3.42;97.96;102497.19;5068006;28;20037;-72
2021/12/21 05:16:54;;;;;;;3.50;2.08;;;;;;;-3.45;97.52;102493.75;5071265;28;20054;-71
2021/12/21 05:19:20;;;;;;;3.55;2.55;;;;;;;-3.45;97.34;102501.44;5053281;28;20064;-73
2021/12/21 05:21:47;;;;;;;2.80;2.25;;;;;;;-3.45;97.30;102501.44;5060425;28;20051;-73
2021/12/21 05:24:15;;;;;;;3.78;2.05;;;;;;;-3.53;96.77;102500.56;5077257;28;20154;-72
2021/12/21 05:26:43;;;;;;;1.65;1.40;;;;;;;-3.58;96.33;102497.09;5068905;28;20050;-73
2021/12/21 05:29:09;;;;;;;4.82;2.22;;;;;;;-3.65;97.04;102498.78;5072188;28;20548;-72
2021/12/21 05:34:11;;;;;;;4.97;3.00;;;;;;;-3.64;96.80;102491.91;5064990;27;20369;-74
2021/12/21 05:36:38;;;;;;;1.73;1.38;;;;;;;-3.63;96.83;102493.63;5049363;28;20124;-72
2021/12/21 05:39:14;;;;;;;4.63;3.45;;;;;;;-3.66;97.64;102494.47;5052699;28;20053;-71
2021/12/21 05:41:48;;;;;;;4.53;2.95;;;;;;;-3.70;96.42;102497.03;5049608;28;20048;-70
2021/12/21 05:44:16;;;;;;;2.47;1.50;;;;;;;-3.75;96.04;102501.28;5049372;28;20067;-71
2021/12/21 05:46:44;;;;;;;5.30;3.83;;;;;;;-3.78;96.55;102501.25;5051791;28;20949;-72
2021/12/21 05:49:12;;;;;;;2.55;1.67;;;;;;;-3.81;95.99;102514.94;5048567;28;20049;-72
2021/12/21 05:51:39;;;;;;;3.53;2.42;;;;;;;-3.81;95.66;102509.78;5056117;28;20041;-71
2021/12/21 05:54:05;;;;;;;4.25;2.95;;;;;;;-3.79;95.90;102509.78;5050541;28;20105;-73
2021/12/21 05:56:32;;;;;;;3.60;2.08;;;;;;;-3.84;96.08;102514.91;5050362;28;20077;-72
2021/12/21 05:59:01;;;;;;;2.00;1.83;;;;;;;-3.80;96.59;102513.19;5048109;28;20048;-72
2021/12/21 06:01:28;;;;;;;1.92;1.30;;;;;;;-3.68;97.00;102510.72;5058226;28;20045;-73
2021/12/21 06:03:55;;;;;;;3.10;2.20;;;;;;;-3.67;97.84;102515.03;5049959;28;20033;-73
2021/12/21 06:06:23;;;;;;;5.35;3.38;;;;;;;-3.76;97.36;102508.09;5052850;28;20048;-73
2021/12/21 06:08:52;;;;;;;4.90;2.55;;;;;;;-3.62;97.66;102501.38;5049736;28;20287;-73
2021/12/21 06:11:22;;;;;;;2.67;2.08;;;;;;;-3.59;97.89;102510.78;5048345;28;20084;-71
2021/12/21 06:14:20;;;;;;;2.67;2.47;;;;;;;-3.66;97.29;102517.59;5050578;28;20041;-71
2021/12/21 06:27:51;;;;;;;5.50;2.53;;;;;;;-3.66;97.92;102503.91;5053287;28;20040;-70
2021/12/21 06:30:17;;;;;;;6.72;3.33;;;;;;;-3.66;97.44;102501.34;5052339;28;20483;-71
2021/12/21 06:32:44;;;;;;;4.50;2.10;;;;;;;-3.73;97.94;102508.13;5055076;28;20075;-72
2021/12/21 06:35:12;;;;;;;2.80;2.53;;;;;;;-3.70;97.08;102502.16;5057203;28;20048;-73
2021/12/21 06:37:41;;;;;;;3.42;2.45;;;;;;;-3.58;98.19;102504.81;5056319;28;20045;-72
2021/12/21 06:40:09;;;;;;;10.85;3.88;;;;;;;-3.64;97.20;102508.19;5058906;28;20044;-71
2021/12/21 06:42:36;;;;;;;2.17;1.90;;;;;;;-3.70;97.62;102510.75;5037760;28;20041;-73
2021/12/21 06:45:11;;;;;;;3.05;2.38;;;;;;;-3.78;97.60;102507.25;5054112;28;20130;-73
2021/12/21 06:53:12;;;;;;;3.10;1.90;;;;;;;-3.60;97.89;102498.81;5041090;28;20064;-73
2021/12/21 06:55:39;;;;;;;6.32;3.08;;;;;;;-3.62;97.77;102506.50;5041602;28;20048;-72
2021/12/21 06:58:06;;;;;;;4.60;2.50;;;;;;;-3.70;97.52;102489.31;5041542;28;20099;-70
2021/12/21 07:00:33;;;;;;;5.38;2.92;;;;;;;-3.65;97.54;102501.34;5038689;28;20091;-73
2021/12/21 07:03:00;;;;;;;2.70;2.00;;;;;;;-3.62;97.43;102500.50;5035680;28;20076;-72
2021/12/21 07:05:28;;;;;;;1.70;1.42;;;;;;;-3.60;97.64;102503.94;5035188;28;20499;-72
2021/12/21 07:07:55;;;;;;;3.13;2.85;;;;;;;-3.60;97.66;102509.06;5040831;28;20058;-71
2021/12/21 07:10:27;;;;;;;7.55;3.65;;;;;;;-3.67;96.99;102520.16;5038706;28;20041;-72
2021/12/21 07:18:29;;;;;;;4.80;2.75;;;;;;;-3.74;97.98;102526.09;5034757;28;20041;-72
2021/12/21 07:20:57;;;;;;;0.98;0.90;;;;;;;-3.70;97.79;102526.13;5034583;28;20068;-72
2021/12/21 07:23:24;;;;;;;3.83;2.22;;;;;;;-3.65;98.13;102523.59;5036885;28;20045;-72
2021/12/21 07:25:52;;;;;;;2.70;1.63;;;;;;;-3.64;97.61;102522.72;5061689;28;20057;-71
2021/12/21 07:28:19;;;;;;;2.30;2.10;;;;;;;-3.72;97.82;102521.81;5048847;28;20130;-70
2021/12/21 07:30:48;;;;;;;1.92;1.45;;;;;;;-3.69;97.58;102526.97;5039354;28;20123;-71
2021/12/21 07:33:15;;;;;;;4.93;2.63;;;;;;;-3.66;97.72;102522.72;5036559;28;20057;-72
2021/12/21 07:35:43;;;;;;;4.47;3.22;;;;;;;-3.66;97.81;102519.31;5038080;28;20124;-70
2021/12/21 07:38:10;;;;;;;3.20;2.80;;;;;;;-3.63;97.51;102509.91;5053974;28;20044;-72
2021/12/21 07:40:37;;;;;;;3.92;3.08;;;;;;;-3.58;97.96;102518.50;5039101;28;20048;-72
2021/12/21 07:43:05;;;;;;;9.15;2.47;;;;;;;-3.58;98.12;102520.22;5038180;28;20130;-71
2021/12/21 07:45:32;;;;;;;20.48;2.00;;;;;;;-3.53;97.88;102521.09;5037486;28;20041;-72
2021/12/21 07:47:59;;;;;;;3.75;2.58;;;;;;;-3.50;98.55;102519.41;5039142;28;20044;-72
2021/12/21 07:50:26;;;;;;;4.22;3.15;;;;;;;-3.56;97.80;102529.66;5035475;28;20045;-72
2021/12/21 07:52:55;;;;;;;5.00;3.25;;;;;;;-3.55;98.25;102522.78;5036441;28;20045;-72
2021/12/21 07:55:22;;;;;;;6.32;3.58;;;;;;;-3.50;98.35;102526.25;5035143;28;20052;-71
2021/12/21 07:57:50;;;;;;;3.00;2.38;;;;;;;-3.50;98.43;102532.25;5035127;28;20048;-75
2021/12/21 08:00:20;;;;;;;3.05;2.75;;;;;;;-3.45;98.51;102532.28;5049685;28;20474;-71
2021/12/21 08:02:48;;;;;;;2.72;2.42;;;;;;;-3.46;98.15;102534.00;5030332;28;20120;-71
2021/12/21 08:05:15;;;;;;;3.78;2.92;;;;;;;-3.47;98.56;102532.28;5028403;28;20053;-71
2021/12/21 08:07:48;;;;;;;20.45;2.60;;;;;;;-3.42;98.82;102533.16;5038065;28;20384;-72
2021/12/21 08:10:25;;;;;;;3.88;2.83;;;;;;;-3.40;98.54;102528.00;5027447;28;20045;-70
2021/12/21 08:12:52;;;;;;;3.65;2.20;;;;;;;-3.39;98.76;102522.03;5035436;28;20057;-73
2021/12/21 08:15:20;;;;;;;3.58;2.45;;;;;;;-3.36;98.50;102517.75;5027134;28;20132;-71
2021/12/21 08:17:47;;;;;;;3.72;3.30;;;;;;;-3.32;98.65;102514.38;5037731;28;20124;-70
2021/12/21 08:20:15;;;;;;;3.70;2.78;;;;;;;-3.23;99.00;102516.97;5028929;28;20060;-73
2021/12/21 08:25:25;;;;;;;5.78;1.73;;;;;;;-3.21;98.58;102535.84;5107507;27;20394;-72
2021/12/21 08:27:52;;;;;;;7.38;2.92;;;;;;;-3.20;98.70;102531.56;5103296;27;20123;-73
2021/12/21 08:30:19;;;;;;;20.38;4.68;;;;;;;-2.88;99.02;102531.69;5111832;28;20058;-71
2021/12/21 08:32:45;;;;;;;8.65;3.42;;;;;;;-1.81;100.00;102535.28;5107836;27;20078;-72
2021/12/21 08:35:13;;;;;;;1.98;1.70;;;;;;;-0.70;100.00;102531.53;5105251;27;20421;-72
2021/12/21 08:37:48;;;;;;;8.35;4.28;;;;;;;0.21;100.00;102529.13;5109302;27;20062;-73
2021/12/21 08:40:15;;;;;;;16.02;3.15;;;;;;;0.81;100.00;102513.00;5133199;27;20492;-72
2021/12/21 08:42:46;;;;;;;3.05;2.20;;;;;;;0.85;100.00;102520.72;5113749;27;20047;-72
2021/12/21 08:45:14;;;;;;;6.78;3.47;;;;;;;1.09;100.00;102524.75;5113463;27;20070;-72
2021/12/21 08:47:42;;;;;;;5.03;3.67;;;;;;;0.67;100.00;102517.50;5112468;27;20039;-73
2021/12/21 08:50:12;;;;;;;11.02;4.00;;;;;;;0.55;100.00;102524.53;5107474;27;20039;-74
2021/12/21 08:52:39;;;;;;;5.35;3.35;;;;;;;0.76;100.00;102519.97;5106301;27;20426;-73
2021/12/21 08:55:08;;;;;;;20.23;4.90;;;;;;;0.54;100.00;102513.31;5111774;27;20035;-73
2021/12/21 08:57:36;;;;;;;6.68;4.38;;;;;;;0.50;100.00;102510.75;5113342;28;20078;-71
2021/12/21 09:00:05;;;;;;;8.77;4.47;;;;;;;0.77;100.00;102513.94;5109799;27;20044;-72
2021/12/21 09:02:35;;;;;;;10.65;3.85;;;;;;;0.84;100.00;102515.56;5110964;27;20039;-72
2021/12/21 09:05:07;;;;;;;7.45;4.18;;;;;;;1.94;100.00;102501.03;5110575;27;20050;-71
2021/12/21 09:07:33;;;;;;;7.95;4.28;;;;;;;2.13;100.00;102502.47;5115647;27;20057;-73
2021/12/21 09:10:00;;;;;;;6.78;4.95;;;;;;;1.53;100.00;102512.06;5105626;27;20043;-72
2021/12/21 09:12:26;;;;;;;15.43;4.78;;;;;;;1.25;100.00;102516.75;5110445;27;20042;-73
2021/12/21 09:14:53;;;;;;;5.60;3.88;;;;;;;1.29;100.00;102507.22;5108938;27;20094;-72
2021/12/21 09:17:21;;;;;;;10.82;5.32;;;;;;;1.22;100.00;102510.78;5125070;27;20071;-73
2021/12/21 09:19:48;;;;;;;5.03;4.13;;;;;;;1.13;100.00;102505.72;5124367;27;20024;-73
2021/12/21 09:22:15;;;;;;;9.13;4.57;;;;;;;2.28;100.00;102506.53;5116693;27;20028;-73
2021/12/21 09:24:42;;;;;;;5.90;5.15;;;;;;;3.18;98.64;102507.31;5103297;27;20139;-74
2021/12/21 09:27:08;;;;;;;33.95;5.63;;;;;;;4.11;86.69;102495.59;5104631;27;20046;-73
2021/12/21 09:29:35;;;;;;;7.38;3.75;;;;;;;3.96;83.49;102500.34;5103131;27;20906;-74
2021/12/21 09:32:02;;;;;;;9.90;6.32;;;;;;;2.86;83.51;102511.47;5105823;27;20617;-72
2021/12/21 09:34:30;;;;;;;12.38;5.38;;;;;;;2.67;86.34;102507.53;5104316;27;20048;-73
2021/12/21 09:36:56;;;;;;;10.38;6.68;;;;;;;2.25;87.36;102514.34;5093296;28;20043;-73
2021/12/21 09:39:23;;;;;;;5.60;4.60;;;;;;;1.42;87.25;102517.41;5094517;28;20040;-73
2021/12/21 09:41:50;;;;;;;5.65;4.30;;;;;;;1.66;87.86;102525.69;5094130;28;20040;-74
2021/12/21 09:44:17;;;;;;;10.32;4.82;;;;;;;1.39;88.39;102524.34;5098144;28;20044;-73
2021/12/21 09:46:45;;;;;;;19.05;6.45;;;;;;;1.27;88.31;102516.75;5084795;28;20093;-72
2021/12/21 09:49:12;;;;;;;30.35;7.30;;;;;;;1.58;88.13;102518.03;5092010;28;20061;-73
2021/12/21 09:51:40;;;;;;;10.68;5.53;;;;;;;1.80;87.07;102520.31;5087803;28;20040;-73
2021/12/21 09:54:08;;;;;;;11.52;7.07;;;;;;;1.99;84.78;102519.97;5092901;27;20121;-73
2021/12/21 09:56:41;;;;;;;9.52;6.15;;;;;;;2.16;85.57;102509.31;5090327;27;20163;-71
2021/12/21 09:59:08;;;;;;;9.27;5.93;;;;;;;2.30;85.53;102509.97;5090626;28;20051;-73
2021/12/21 10:01:34;;;;;;;9.73;6.40;;;;;;;2.21;84.24;102504.94;5091644;28;20047;-72
2021/12/21 10:04:01;;;;;;;16.23;6.82;;;;;;;2.10;84.71;102504.25;5094005;28;20470;-72
2021/12/21 10:06:27;;;;;;;10.02;5.45;;;;;;;2.06;82.62;102494.81;5095703;27;20035;-73
2021/12/21 10:09:05;;;;;;;6.85;5.38;;;;;;;2.78;87.98;102499.53;5090077;28;20052;-73
2021/12/21 10:11:42;;;;;;;7.25;5.10;;;;;;;2.88;84.35;102488.09;5095967;28;20043;-72
2021/12/21 10:14:09;;;;;;;8.30;6.03;;;;;;;3.05;80.47;102504.16;5093016;28;20063;-73
2021/12/21 10:16:36;;;;;;;10.15;7.18;;;;;;;3.22;78.12;102496.00;5096314;28;20051;-72
2021/12/21 10:19:03;;;;;;;10.25;7.35;;;;;;;3.39;79.16;102496.50;5093348;27;20058;-72
2021/12/21 10:21:29;;;;;;;18.73;7.47;;;;;;;3.49;78.10;102491.94;5093661;28;20080;-73
2021/12/21 10:23:57;;;;;;;26.85;9.95;;;;;;;3.47;77.27;102491.97;5086790;28;20124;-74
2021/12/21 10:26:26;;;;;;;12.27;7.03;;;;;;;3.36;80.82;102490.50;5091845;28;20047;-72
2021/12/21 10:28:54;;;;;;;6.10;4.55;;;;;;;3.73;79.00;102487.03;5090694;28;20078;-72
2021/12/21 10:31:26;;;;;;;7.95;6.38;;;;;;;3.70;77.82;102481.91;5087972;28;20080;-72
2021/12/21 10:33:54;;;;;;;20.50;6.32;;;;;;;3.91;81.83;102477.94;5086142;28;20048;-75
2021/12/21 10:36:22;;;;;;;15.25;6.38;;;;;;;4.20;81.31;102476.31;5090535;28;20101;-73
2021/12/21 10:38:52;;;;;;;19.95;5.75;;;;;;;4.64;76.96;102476.00;5089429;28;20152;-74
2021/12/21 10:41:22;;;;;;;10.98;7.15;;;;;;;4.80;78.15;102468.56;5094436;28;20398;-72
2021/12/21 10:43:57;;;;;;;9.25;4.95;;;;;;;5.64;77.72;102464.25;5094516;28;20044;-74
2021/12/21 10:46:26;;;;;;;13.45;5.95;;;;;;;5.93;69.36;102463.34;5083557;27;20120;-73
2021/12/21 10:48:53;;;;;;;19.08;5.57;;;;;;;5.63;69.00;102451.25;5094543;28;20039;-73
2021/12/21 10:51:20;;;;;;;12.38;4.57;;;;;;;5.41;71.29;102457.19;5084394;28;20089;-72
2021/12/21 10:53:47;;;;;;;8.68;4.75;;;;;;;4.70;71.66;102460.22;5093813;28;20640;-74
2021/12/21 10:56:17;;;;;;;13.90;6.10;;;;;;;5.00;71.35;102460.19;5087605;28;20490;-73
2021/12/21 10:58:46;;;;;;;12.43;6.13;;;;;;;4.84;73.44;102454.56;5093765;28;20224;-73
2021/12/21 11:01:16;;;;;;;12.63;6.15;;;;;;;4.60;71.72;102445.75;5085652;28;20146;-73
2021/12/21 11:03:49;;;;;;;8.93;4.00;;;;;;;4.61;72.92;102437.88;5089163;28;20059;-75
2021/12/21 11:06:18;;;;;;;8.05;5.05;;;;;;;4.64;74.79;102442.16;5098803;28;20108;-73
2021/12/21 11:08:48;;;;;;;8.07;4.97;;;;;;;4.76;73.26;102438.31;5088171;28;20758;-72
2021/12/21 11:11:29;;;;;;;9.13;5.10;;;;;;;4.44;73.01;102447.06;5097998;27;20608;-73
2021/12/21 11:14:03;;;;;;;10.18;5.40;;;;;;;4.26;74.16;102444.94;5086807;28;20130;-73
2021/12/21 11:16:36;;;;;;;7.18;4.15;;;;;;;4.58;73.13;102430.19;5090522;28;20043;-74
2021/12/21 11:19:03;;;;;;;9.25;3.90;;;;;;;4.92;74.02;102447.38;5085769;27;20044;-73
2021/12/21 11:21:31;;;;;;;5.95;3.55;;;;;;;4.92;71.29;102442.19;5095365;28;20089;-72
2021/12/21 11:24:01;;;;;;;12.05;4.93;;;;;;;4.78;71.90;102433.91;5093234;27;20058;-74
2021/12/21 11:26:29;;;;;;;5.70;3.63;;;;;;;4.96;72.57;102433.41;5096035;28;20127;-71
2021/12/21 11:28:56;;;;;;;9.48;4.80;;;;;;;5.01;72.41;102431.50;5084601;28;20051;-72
2021/12/21 11:31:24;;;;;;;7.93;4.28;;;;;;;4.84;72.41;102427.69;5092416;28;20043;-72
2021/12/21 11:33:56;;;;;;;4.05;2.55;;;;;;;4.91;71.22;102418.81;5088631;28;20044;-72
2021/12/21 11:39:08;;;;;;;10.48;3.67;;;;;;;5.31;72.20;102414.09;5098546;28;20047;-71
2021/12/21 11:41:37;;;;;;;3.85;2.55;;;;;;;5.12;68.42;102412.94;5095711;28;20039;-72
2021/12/21 11:44:09;;;;;;;4.90;2.78;;;;;;;5.11;70.87;102404.28;5099913;28;20043;-72
2021/12/21 11:46:50;;;;;;;7.57;3.20;;;;;;;5.03;68.16;102402.78;5092936;28;20123;-73
2021/12/21 11:49:20;;;;;;;7.10;3.28;;;;;;;4.73;67.98;102407.16;5099994;28;20118;-72
2021/12/21 11:51:46;;;;;;;4.57;2.50;;;;;;;4.86;69.26;102400.72;5105030;27;20062;-72
2021/12/21 11:54:19;;;;;;;5.47;2.70;;;;;;;4.82;69.52;102385.22;5123584;28;20039;-71
2021/12/21 11:56:46;;;;;;;8.82;3.15;;;;;;;4.97;70.58;102390.81;5108573;28;20050;-74
2021/12/21 11:59:13;;;;;;;17.85;3.17;;;;;;;5.00;71.38;102393.31;5114730;28;20050;-73
2021/12/21 12:01:47;;;;;;;4.05;2.35;;;;;;;4.86;67.20;102387.69;5085088;28;20059;-72
2021/12/21 12:04:16;;;;;;;9.45;2.30;;;;;;;4.90;67.34;102394.50;5092906;27;20076;-73
2021/12/21 12:06:46;;;;;;;3.90;2.10;;;;;;;4.68;67.56;102391.72;5093666;27;20035;-75
2021/12/21 12:09:22;;;;;;;7.03;2.15;;;;;;;4.64;69.38;102382.31;5091933;28;20078;-73
2021/12/21 12:11:49;;;;;;;5.28;2.58;;;;;;;4.49;69.89;102386.19;5103544;27;20135;-73
2021/12/21 12:14:19;;;;;;;10.52;4.18;;;;;;;4.45;70.07;102381.13;5092951;28;20134;-73
2021/12/21 12:16:51;;;;;;;9.68;3.88;;;;;;;4.21;72.40;102382.63;5090040;28;20168;-70
2021/12/21 12:19:19;;;;;;;4.07;3.10;;;;;;;4.17;74.76;102388.84;5094906;28;20044;-72
2021/12/21 12:21:55;;;;;;;4.35;2.97;;;;;;;4.47;72.57;102394.94;5091442;28;20051;-74